sensor_id;sensor_type;location;lat;lon;timestamp;P1;durP1;ratioP1;P2;durP2;ratioP2
7929;SDS011;4010;42.698;23.124;2022-10-26T00:00:50;6.70;;;4.10;;
7929;SDS011;4010;42.698;23.124;2022-10-26T00:03:17;4.47;;;3.23;;
7929;SDS011;4010;42.698;23.124;2022-10-26T00:05:46;5.30;;;3.60;;
7929;SDS011;4010;42.698;23.124;2022-10-26T00:08:12;6.83;;;3.60;;
7929;SDS011;4010;42.698;23.124;2022-10-26T00:10:39;6.50;;;2.60;;
7929;SDS011;4010;42.698;23.124;2022-10-26T00:13:07;7.97;;;3.07;;
7929;SDS011;4010;42.698;23.124;2022-10-26T00:15:38;4.70;;;3.00;;
7929;SDS011;4010;42.698;23.124;2022-10-26T00:18:05;4.43;;;3.30;;
7929;SDS011;4010;42.698;23.124;2022-10-26T00:20:32;9.93;;;3.30;;
7929;SDS011;4010;42.698;23.124;2022-10-26T00:23:00;4.77;;;3.17;;
7929;SDS011;4010;42.698;23.124;2022-10-26T00:25:27;4.27;;;3.20;;
7929;SDS011;4010;42.698;23.124;2022-10-26T00:27:53;5.67;;;3.10;;
7929;SDS011;4010;42.698;23.124;2022-10-26T00:30:20;6.10;;;3.10;;
7929;SDS011;4010;42.698;23.124;2022-10-26T00:32:47;6.30;;;3.03;;
7929;SDS011;4010;42.698;23.124;2022-10-26T00:35:14;10.30;;;3.63;;
7929;SDS011;4010;42.698;23.124;2022-10-26T00:37:40;4.80;;;3.60;;
7929;SDS011;4010;42.698;23.124;2022-10-26T00:40:10;6.30;;;3.83;;
7929;SDS011;4010;42.698;23.124;2022-10-26T00:42:37;6.20;;;3.53;;
7929;SDS011;4010;42.698;23.124;2022-10-26T00:45:04;6.57;;;3.53;;
7929;SDS011;4010;42.698;23.124;2022-10-26T00:47:41;5.73;;;3.13;;
7929;SDS011;4010;42.698;23.124;2022-10-26T00:50:11;4.47;;;3.40;;
7929;SDS011;4010;42.698;23.124;2022-10-26T00:52:42;5.63;;;3.67;;
7929;SDS011;4010;42.698;23.124;2022-10-26T00:55:10;5.07;;;3.20;;
7929;SDS011;4010;42.698;23.124;2022-10-26T00:57:37;4.37;;;3.47;;
7929;SDS011;4010;42.698;23.124;2022-10-26T01:00:05;6.03;;;3.60;;
7929;SDS011;4010;42.698;23.124;2022-10-26T01:02:34;5.50;;;3.50;;
7929;SDS011;4010;42.698;23.124;2022-10-26T01:05:02;5.23;;;4.13;;
7929;SDS011;4010;42.698;23.124;2022-10-26T01:07:30;6.67;;;3.67;;
7929;SDS011;4010;42.698;23.124;2022-10-26T01:09:58;5.77;;;3.63;;
7929;SDS011;4010;42.698;23.124;2022-10-26T01:12:27;3.40;;;2.93;;
7929;SDS011;4010;42.698;23.124;2022-10-26T01:14:54;3.43;;;3.13;;
7929;SDS011;4010;42.698;23.124;2022-10-26T01:17:26;5.63;;;3.63;;
7929;SDS011;4010;42.698;23.124;2022-10-26T01:23:07;5.67;;;3.60;;
7929;SDS011;4010;42.698;23.124;2022-10-26T01:25:48;4.87;;;3.67;;
7929;SDS011;4010;42.698;23.124;2022-10-26T01:28:50;6.47;;;3.53;;
7929;SDS011;4010;42.698;23.124;2022-10-26T01:31:37;4.83;;;3.97;;
7929;SDS011;4010;42.698;23.124;2022-10-26T01:34:08;7.17;;;4.30;;
7929;SDS011;4010;42.698;23.124;2022-10-26T01:36:38;6.87;;;3.70;;
7929;SDS011;4010;42.698;23.124;2022-10-26T01:39:09;6.23;;;3.63;;
7929;SDS011;4010;42.698;23.124;2022-10-26T01:41:43;6.20;;;3.93;;
7929;SDS011;4010;42.698;23.124;2022-10-26T01:44:15;7.10;;;4.30;;
7929;SDS011;4010;42.698;23.124;2022-10-26T01:46:47;4.77;;;3.47;;
7929;SDS011;4010;42.698;23.124;2022-10-26T01:49:17;8.03;;;4.03;;
7929;SDS011;4010;42.698;23.124;2022-10-26T01:51:47;5.23;;;3.53;;
7929;SDS011;4010;42.698;23.124;2022-10-26T01:54:15;9.67;;;4.10;;
7929;SDS011;4010;42.698;23.124;2022-10-26T01:56:42;6.73;;;3.73;;
7929;SDS011;4010;42.698;23.124;2022-10-26T01:59:21;6.23;;;3.60;;
7929;SDS011;4010;42.698;23.124;2022-10-26T02:05:02;5.03;;;3.30;;
7929;SDS011;4010;42.698;23.124;2022-10-26T02:07:42;6.33;;;3.07;;
7929;SDS011;4010;42.698;23.124;2022-10-26T02:10:22;4.77;;;3.53;;
7929;SDS011;4010;42.698;23.124;2022-10-26T02:12:57;5.63;;;3.73;;
7929;SDS011;4010;42.698;23.124;2022-10-26T02:15:30;8.67;;;3.60;;
7929;SDS011;4010;42.698;23.124;2022-10-26T02:18:05;5.77;;;3.13;;
7929;SDS011;4010;42.698;23.124;2022-10-26T02:20:42;3.70;;;3.10;;
7929;SDS011;4010;42.698;23.124;2022-10-26T02:23:14;7.83;;;3.47;;
7929;SDS011;4010;42.698;23.124;2022-10-26T02:25:45;5.13;;;3.70;;
7929;SDS011;4010;42.698;23.124;2022-10-26T02:28:16;6.80;;;3.63;;
7929;SDS011;4010;42.698;23.124;2022-10-26T02:30:45;4.07;;;3.17;;
7929;SDS011;4010;42.698;23.124;2022-10-26T02:33:17;5.00;;;2.77;;
7929;SDS011;4010;42.698;23.124;2022-10-26T02:35:47;5.60;;;3.10;;
7929;SDS011;4010;42.698;23.124;2022-10-26T02:38:18;5.87;;;2.97;;
7929;SDS011;4010;42.698;23.124;2022-10-26T02:40:45;4.93;;;2.97;;
7929;SDS011;4010;42.698;23.124;2022-10-26T02:43:16;6.87;;;3.40;;
7929;SDS011;4010;42.698;23.124;2022-10-26T02:45:47;7.33;;;2.77;;
7929;SDS011;4010;42.698;23.124;2022-10-26T02:48:19;6.67;;;3.00;;
7929;SDS011;4010;42.698;23.124;2022-10-26T02:50:50;5.20;;;3.47;;
7929;SDS011;4010;42.698;23.124;2022-10-26T02:53:24;5.57;;;3.20;;
7929;SDS011;4010;42.698;23.124;2022-10-26T02:55:56;4.70;;;2.83;;
7929;SDS011;4010;42.698;23.124;2022-10-26T02:58:27;3.10;;;2.73;;
7929;SDS011;4010;42.698;23.124;2022-10-26T03:00:56;4.23;;;3.10;;
7929;SDS011;4010;42.698;23.124;2022-10-26T03:03:24;6.50;;;3.13;;
7929;SDS011;4010;42.698;23.124;2022-10-26T03:05:51;5.77;;;3.40;;
7929;SDS011;4010;42.698;23.124;2022-10-26T03:08:18;3.23;;;2.63;;
7929;SDS011;4010;42.698;23.124;2022-10-26T03:10:45;3.80;;;2.87;;
7929;SDS011;4010;42.698;23.124;2022-10-26T03:13:12;5.83;;;3.30;;
7929;SDS011;4010;42.698;23.124;2022-10-26T03:15:39;4.93;;;3.10;;
7929;SDS011;4010;42.698;23.124;2022-10-26T03:18:06;8.73;;;3.50;;
7929;SDS011;4010;42.698;23.124;2022-10-26T03:20:34;5.60;;;3.00;;
7929;SDS011;4010;42.698;23.124;2022-10-26T03:23:01;3.83;;;2.90;;
7929;SDS011;4010;42.698;23.124;2022-10-26T03:25:28;4.77;;;3.47;;
7929;SDS011;4010;42.698;23.124;2022-10-26T03:27:55;4.23;;;3.00;;
7929;SDS011;4010;42.698;23.124;2022-10-26T03:30:22;5.60;;;3.13;;
7929;SDS011;4010;42.698;23.124;2022-10-26T03:32:49;5.87;;;3.00;;
7929;SDS011;4010;42.698;23.124;2022-10-26T03:35:16;4.80;;;2.73;;
7929;SDS011;4010;42.698;23.124;2022-10-26T03:37:44;5.53;;;2.87;;
7929;SDS011;4010;42.698;23.124;2022-10-26T03:40:11;4.33;;;3.43;;
7929;SDS011;4010;42.698;23.124;2022-10-26T03:42:38;3.57;;;2.30;;
7929;SDS011;4010;42.698;23.124;2022-10-26T03:45:06;5.17;;;3.20;;
7929;SDS011;4010;42.698;23.124;2022-10-26T03:47:39;4.63;;;2.83;;
7929;SDS011;4010;42.698;23.124;2022-10-26T03:50:08;4.37;;;2.70;;
7929;SDS011;4010;42.698;23.124;2022-10-26T03:52:36;7.10;;;2.93;;
7929;SDS011;4010;42.698;23.124;2022-10-26T03:55:04;4.67;;;3.13;;
7929;SDS011;4010;42.698;23.124;2022-10-26T03:57:32;7.43;;;3.07;;
7929;SDS011;4010;42.698;23.124;2022-10-26T03:59:58;3.03;;;2.50;;
7929;SDS011;4010;42.698;23.124;2022-10-26T04:02:25;4.13;;;2.80;;
7929;SDS011;4010;42.698;23.124;2022-10-26T04:04:52;6.57;;;2.63;;
7929;SDS011;4010;42.698;23.124;2022-10-26T04:07:18;6.57;;;2.57;;
7929;SDS011;4010;42.698;23.124;2022-10-26T04:09:45;3.93;;;2.57;;
7929;SDS011;4010;42.698;23.124;2022-10-26T04:12:13;3.10;;;2.83;;
7929;SDS011;4010;42.698;23.124;2022-10-26T04:14:40;3.70;;;2.73;;
7929;SDS011;4010;42.698;23.124;2022-10-26T04:17:06;3.90;;;2.73;;
7929;SDS011;4010;42.698;23.124;2022-10-26T04:19:33;5.33;;;2.93;;
7929;SDS011;4010;42.698;23.124;2022-10-26T04:22:00;8.83;;;2.93;;
7929;SDS011;4010;42.698;23.124;2022-10-26T04:24:27;5.37;;;3.33;;
7929;SDS011;4010;42.698;23.124;2022-10-26T04:26:53;4.77;;;3.27;;
7929;SDS011;4010;42.698;23.124;2022-10-26T04:29:22;5.83;;;3.67;;
7929;SDS011;4010;42.698;23.124;2022-10-26T04:31:48;4.17;;;3.27;;
7929;SDS011;4010;42.698;23.124;2022-10-26T04:34:15;4.87;;;3.50;;
7929;SDS011;4010;42.698;23.124;2022-10-26T04:36:42;6.03;;;3.00;;
7929;SDS011;4010;42.698;23.124;2022-10-26T04:39:08;4.27;;;3.03;;
7929;SDS011;4010;42.698;23.124;2022-10-26T04:41:35;3.70;;;3.10;;
7929;SDS011;4010;42.698;23.124;2022-10-26T04:44:02;8.23;;;3.17;;
7929;SDS011;4010;42.698;23.124;2022-10-26T04:46:30;6.00;;;2.70;;
7929;SDS011;4010;42.698;23.124;2022-10-26T04:48:57;4.23;;;3.20;;
7929;SDS011;4010;42.698;23.124;2022-10-26T04:51:23;4.93;;;3.43;;
7929;SDS011;4010;42.698;23.124;2022-10-26T04:53:52;6.77;;;3.60;;
7929;SDS011;4010;42.698;23.124;2022-10-26T04:56:19;10.67;;;3.67;;
7929;SDS011;4010;42.698;23.124;2022-10-26T04:58:45;14.63;;;3.70;;
7929;SDS011;4010;42.698;23.124;2022-10-26T05:01:12;11.30;;;3.50;;
7929;SDS011;4010;42.698;23.124;2022-10-26T05:03:41;4.50;;;3.17;;
7929;SDS011;4010;42.698;23.124;2022-10-26T05:06:07;6.40;;;3.60;;
7929;SDS011;4010;42.698;23.124;2022-10-26T05:08:34;9.43;;;4.03;;
7929;SDS011;4010;42.698;23.124;2022-10-26T05:11:01;5.40;;;3.47;;
7929;SDS011;4010;42.698;23.124;2022-10-26T05:13:28;5.27;;;3.53;;
7929;SDS011;4010;42.698;23.124;2022-10-26T05:15:54;4.43;;;3.43;;
7929;SDS011;4010;42.698;23.124;2022-10-26T05:18:21;6.57;;;3.77;;
7929;SDS011;4010;42.698;23.124;2022-10-26T05:20:50;5.70;;;3.60;;
7929;SDS011;4010;42.698;23.124;2022-10-26T05:23:17;4.83;;;3.10;;
7929;SDS011;4010;42.698;23.124;2022-10-26T05:25:44;6.43;;;3.90;;
7929;SDS011;4010;42.698;23.124;2022-10-26T05:28:11;5.90;;;3.47;;
7929;SDS011;4010;42.698;23.124;2022-10-26T05:30:39;6.00;;;3.70;;
7929;SDS011;4010;42.698;23.124;2022-10-26T05:33:07;7.70;;;3.53;;
7929;SDS011;4010;42.698;23.124;2022-10-26T05:35:36;5.57;;;3.50;;
7929;SDS011;4010;42.698;23.124;2022-10-26T05:38:07;6.90;;;3.80;;
7929;SDS011;4010;42.698;23.124;2022-10-26T05:40:34;7.07;;;4.43;;
7929;SDS011;4010;42.698;23.124;2022-10-26T05:43:01;4.40;;;3.40;;
7929;SDS011;4010;42.698;23.124;2022-10-26T05:45:28;7.57;;;3.70;;
7929;SDS011;4010;42.698;23.124;2022-10-26T05:47:55;6.33;;;3.57;;
7929;SDS011;4010;42.698;23.124;2022-10-26T05:50:22;4.43;;;3.33;;
7929;SDS011;4010;42.698;23.124;2022-10-26T05:52:48;3.70;;;3.10;;
7929;SDS011;4010;42.698;23.124;2022-10-26T05:55:17;3.80;;;2.97;;
7929;SDS011;4010;42.698;23.124;2022-10-26T05:57:44;5.77;;;3.17;;
7929;SDS011;4010;42.698;23.124;2022-10-26T06:00:14;4.47;;;3.70;;
7929;SDS011;4010;42.698;23.124;2022-10-26T06:02:46;4.47;;;3.70;;
7929;SDS011;4010;42.698;23.124;2022-10-26T06:05:23;8.23;;;3.43;;
7929;SDS011;4010;42.698;23.124;2022-10-26T06:07:54;4.73;;;3.10;;
7929;SDS011;4010;42.698;23.124;2022-10-26T06:10:23;5.13;;;3.47;;
7929;SDS011;4010;42.698;23.124;2022-10-26T06:12:50;4.00;;;3.20;;
7929;SDS011;4010;42.698;23.124;2022-10-26T06:15:18;3.90;;;3.20;;
7929;SDS011;4010;42.698;23.124;2022-10-26T06:17:49;6.23;;;3.20;;
7929;SDS011;4010;42.698;23.124;2022-10-26T06:20:31;4.30;;;3.03;;
7929;SDS011;4010;42.698;23.124;2022-10-26T06:23:14;3.10;;;2.80;;
7929;SDS011;4010;42.698;23.124;2022-10-26T06:25:57;5.37;;;2.77;;
7929;SDS011;4010;42.698;23.124;2022-10-26T06:28:31;4.70;;;3.10;;
7929;SDS011;4010;42.698;23.124;2022-10-26T06:31:04;3.60;;;2.97;;
7929;SDS011;4010;42.698;23.124;2022-10-26T06:33:31;2.57;;;2.37;;
7929;SDS011;4010;42.698;23.124;2022-10-26T06:36:01;4.33;;;2.93;;
7929;SDS011;4010;42.698;23.124;2022-10-26T06:38:37;3.17;;;2.60;;
7929;SDS011;4010;42.698;23.124;2022-10-26T06:41:10;3.23;;;2.87;;
7929;SDS011;4010;42.698;23.124;2022-10-26T06:43:43;3.40;;;2.60;;
7929;SDS011;4010;42.698;23.124;2022-10-26T06:46:12;3.23;;;2.90;;
7929;SDS011;4010;42.698;23.124;2022-10-26T06:48:48;3.40;;;2.47;;
7929;SDS011;4010;42.698;23.124;2022-10-26T06:51:18;3.33;;;2.40;;
7929;SDS011;4010;42.698;23.124;2022-10-26T06:53:48;6.60;;;2.80;;
7929;SDS011;4010;42.698;23.124;2022-10-26T06:56:22;3.77;;;2.80;;
7929;SDS011;4010;42.698;23.124;2022-10-26T06:58:49;4.70;;;2.50;;
7929;SDS011;4010;42.698;23.124;2022-10-26T07:01:17;4.23;;;2.57;;
7929;SDS011;4010;42.698;23.124;2022-10-26T07:03:44;2.90;;;2.60;;
7929;SDS011;4010;42.698;23.124;2022-10-26T07:06:11;4.93;;;2.50;;
7929;SDS011;4010;42.698;23.124;2022-10-26T07:08:38;3.00;;;2.50;;
7929;SDS011;4010;42.698;23.124;2022-10-26T07:11:05;3.90;;;2.50;;
7929;SDS011;4010;42.698;23.124;2022-10-26T07:13:34;4.37;;;2.53;;
7929;SDS011;4010;42.698;23.124;2022-10-26T07:16:01;3.37;;;2.20;;
7929;SDS011;4010;42.698;23.124;2022-10-26T07:18:28;2.50;;;2.30;;
7929;SDS011;4010;42.698;23.124;2022-10-26T07:20:54;4.07;;;2.63;;
7929;SDS011;4010;42.698;23.124;2022-10-26T07:23:23;6.03;;;2.40;;
7929;SDS011;4010;42.698;23.124;2022-10-26T07:25:50;3.40;;;2.53;;
7929;SDS011;4010;42.698;23.124;2022-10-26T07:28:16;2.70;;;2.20;;
7929;SDS011;4010;42.698;23.124;2022-10-26T07:30:44;2.40;;;2.07;;
7929;SDS011;4010;42.698;23.124;2022-10-26T07:33:12;3.53;;;2.30;;
7929;SDS011;4010;42.698;23.124;2022-10-26T07:35:39;2.33;;;1.97;;
7929;SDS011;4010;42.698;23.124;2022-10-26T07:38:06;2.10;;;1.90;;
7929;SDS011;4010;42.698;23.124;2022-10-26T07:40:34;2.43;;;2.03;;
7929;SDS011;4010;42.698;23.124;2022-10-26T07:43:01;3.87;;;2.07;;
7929;SDS011;4010;42.698;23.124;2022-10-26T07:45:28;3.93;;;2.20;;
7929;SDS011;4010;42.698;23.124;2022-10-26T07:47:57;2.80;;;1.97;;
7929;SDS011;4010;42.698;23.124;2022-10-26T07:50:24;2.37;;;2.00;;
7929;SDS011;4010;42.698;23.124;2022-10-26T07:52:50;4.97;;;2.20;;
7929;SDS011;4010;42.698;23.124;2022-10-26T07:55:17;3.70;;;2.20;;
7929;SDS011;4010;42.698;23.124;2022-10-26T07:57:44;3.17;;;2.10;;
7929;SDS011;4010;42.698;23.124;2022-10-26T08:00:11;3.03;;;2.00;;
7929;SDS011;4010;42.698;23.124;2022-10-26T08:02:39;3.22;;;2.50;;
7929;SDS011;4010;42.698;23.124;2022-10-26T08:05:08;4.13;;;1.90;;
7929;SDS011;4010;42.698;23.124;2022-10-26T08:07:39;3.63;;;2.15;;
7929;SDS011;4010;42.698;23.124;2022-10-26T08:10:07;3.07;;;2.20;;
7929;SDS011;4010;42.698;23.124;2022-10-26T08:12:34;3.03;;;2.03;;
7929;SDS011;4010;42.698;23.124;2022-10-26T08:15:01;2.10;;;1.77;;
7929;SDS011;4010;42.698;23.124;2022-10-26T08:17:28;2.43;;;1.90;;
7929;SDS011;4010;42.698;23.124;2022-10-26T08:19:55;2.20;;;1.70;;
7929;SDS011;4010;42.698;23.124;2022-10-26T08:22:23;2.33;;;2.13;;
7929;SDS011;4010;42.698;23.124;2022-10-26T08:24:50;2.93;;;1.83;;
7929;SDS011;4010;42.698;23.124;2022-10-26T08:27:16;3.13;;;2.20;;
7929;SDS011;4010;42.698;23.124;2022-10-26T08:29:43;2.47;;;2.28;;
7929;SDS011;4010;42.698;23.124;2022-10-26T08:32:10;3.93;;;2.40;;
7929;SDS011;4010;42.698;23.124;2022-10-26T08:34:36;2.37;;;2.17;;
7929;SDS011;4010;42.698;23.124;2022-10-26T08:37:03;3.90;;;2.20;;
7929;SDS011;4010;42.698;23.124;2022-10-26T08:39:31;2.53;;;2.10;;
7929;SDS011;4010;42.698;23.124;2022-10-26T08:42:01;3.20;;;1.90;;
7929;SDS011;4010;42.698;23.124;2022-10-26T08:44:34;2.43;;;1.97;;
7929;SDS011;4010;42.698;23.124;2022-10-26T08:47:05;3.90;;;2.23;;
7929;SDS011;4010;42.698;23.124;2022-10-26T08:49:39;3.50;;;1.97;;
7929;SDS011;4010;42.698;23.124;2022-10-26T08:52:10;4.00;;;2.10;;
7929;SDS011;4010;42.698;23.124;2022-10-26T08:54:43;2.70;;;2.10;;
7929;SDS011;4010;42.698;23.124;2022-10-26T08:57:15;2.77;;;2.00;;
7929;SDS011;4010;42.698;23.124;2022-10-26T08:59:48;3.00;;;2.00;;
7929;SDS011;4010;42.698;23.124;2022-10-26T09:02:20;3.37;;;1.93;;
7929;SDS011;4010;42.698;23.124;2022-10-26T09:04:48;4.80;;;2.00;;
7929;SDS011;4010;42.698;23.124;2022-10-26T09:07:24;4.40;;;2.00;;
7929;SDS011;4010;42.698;23.124;2022-10-26T09:10:05;4.87;;;1.90;;
7929;SDS011;4010;42.698;23.124;2022-10-26T09:12:43;2.70;;;1.97;;
7929;SDS011;4010;42.698;23.124;2022-10-26T09:15:18;2.03;;;1.70;;
7929;SDS011;4010;42.698;23.124;2022-10-26T09:17:56;2.30;;;1.87;;
7929;SDS011;4010;42.698;23.124;2022-10-26T09:20:43;6.27;;;2.00;;
7929;SDS011;4010;42.698;23.124;2022-10-26T09:23:33;2.07;;;1.70;;
7929;SDS011;4010;42.698;23.124;2022-10-26T09:26:12;2.27;;;2.00;;
7929;SDS011;4010;42.698;23.124;2022-10-26T09:28:40;2.10;;;1.90;;
7929;SDS011;4010;42.698;23.124;2022-10-26T09:31:12;1.80;;;1.70;;
7929;SDS011;4010;42.698;23.124;2022-10-26T09:33:41;1.60;;;1.50;;
7929;SDS011;4010;42.698;23.124;2022-10-26T09:36:09;2.40;;;2.03;;
7929;SDS011;4010;42.698;23.124;2022-10-26T09:38:39;2.97;;;1.70;;
7929;SDS011;4010;42.698;23.124;2022-10-26T09:41:19;2.17;;;1.67;;
7929;SDS011;4010;42.698;23.124;2022-10-26T09:43:51;3.07;;;1.90;;
7929;SDS011;4010;42.698;23.124;2022-10-26T09:46:24;1.73;;;1.63;;
7929;SDS011;4010;42.698;23.124;2022-10-26T09:48:54;2.40;;;1.43;;
7929;SDS011;4010;42.698;23.124;2022-10-26T09:51:24;1.60;;;1.30;;
7929;SDS011;4010;42.698;23.124;2022-10-26T09:53:52;2.00;;;1.70;;
7929;SDS011;4010;42.698;23.124;2022-10-26T09:56:20;2.17;;;1.50;;
7929;SDS011;4010;42.698;23.124;2022-10-26T09:58:49;1.70;;;1.47;;
7929;SDS011;4010;42.698;23.124;2022-10-26T10:01:27;2.37;;;1.20;;
7929;SDS011;4010;42.698;23.124;2022-10-26T10:04:09;1.63;;;1.27;;
7929;SDS011;4010;42.698;23.124;2022-10-26T10:06:45;3.83;;;1.43;;
7929;SDS011;4010;42.698;23.124;2022-10-26T10:09:13;1.10;;;1.00;;
7929;SDS011;4010;42.698;23.124;2022-10-26T10:11:43;0.73;;;0.70;;
7929;SDS011;4010;42.698;23.124;2022-10-26T10:14:19;1.40;;;1.00;;
7929;SDS011;4010;42.698;23.124;2022-10-26T10:16:50;1.10;;;1.00;;
7929;SDS011;4010;42.698;23.124;2022-10-26T10:19:20;1.00;;;0.90;;
7929;SDS011;4010;42.698;23.124;2022-10-26T10:21:50;0.87;;;0.87;;
7929;SDS011;4010;42.698;23.124;2022-10-26T10:24:23;1.03;;;0.90;;
7929;SDS011;4010;42.698;23.124;2022-10-26T10:26:57;1.00;;;0.90;;
7929;SDS011;4010;42.698;23.124;2022-10-26T10:29:26;0.90;;;0.90;;
7929;SDS011;4010;42.698;23.124;2022-10-26T10:31:56;1.23;;;0.80;;
7929;SDS011;4010;42.698;23.124;2022-10-26T10:34:24;0.77;;;0.77;;
7929;SDS011;4010;42.698;23.124;2022-10-26T10:36:51;1.20;;;0.90;;
7929;SDS011;4010;42.698;23.124;2022-10-26T10:39:35;0.97;;;0.97;;
7929;SDS011;4010;42.698;23.124;2022-10-26T10:42:10;0.80;;;0.80;;
7929;SDS011;4010;42.698;23.124;2022-10-26T10:44:42;0.60;;;0.60;;
7929;SDS011;4010;42.698;23.124;2022-10-26T10:47:17;1.37;;;0.90;;
7929;SDS011;4010;42.698;23.124;2022-10-26T10:49:51;2.87;;;0.90;;
7929;SDS011;4010;42.698;23.124;2022-10-26T10:52:23;0.70;;;0.70;;
7929;SDS011;4010;42.698;23.124;2022-10-26T10:54:53;1.03;;;0.60;;
7929;SDS011;4010;42.698;23.124;2022-10-26T10:57:31;0.77;;;0.60;;
7929;SDS011;4010;42.698;23.124;2022-10-26T11:00:07;1.20;;;0.73;;
7929;SDS011;4010;42.698;23.124;2022-10-26T11:05:32;1.00;;;0.90;;
7929;SDS011;4010;42.698;23.124;2022-10-26T11:08:14;1.00;;;0.90;;
7929;SDS011;4010;42.698;23.124;2022-10-26T11:10:45;1.43;;;0.77;;
7929;SDS011;4010;42.698;23.124;2022-10-26T11:13:18;0.83;;;0.70;;
7929;SDS011;4010;42.698;23.124;2022-10-26T11:15:49;0.73;;;0.73;;
7929;SDS011;4010;42.698;23.124;2022-10-26T11:18:23;0.70;;;0.70;;
7929;SDS011;4010;42.698;23.124;2022-10-26T11:20:57;0.70;;;0.60;;
7929;SDS011;4010;42.698;23.124;2022-10-26T11:23:31;0.70;;;0.70;;
7929;SDS011;4010;42.698;23.124;2022-10-26T11:26:04;1.83;;;0.70;;
7929;SDS011;4010;42.698;23.124;2022-10-26T11:28:39;0.80;;;0.80;;
7929;SDS011;4010;42.698;23.124;2022-10-26T11:31:14;0.80;;;0.80;;
7929;SDS011;4010;42.698;23.124;2022-10-26T11:33:50;0.87;;;0.87;;
7929;SDS011;4010;42.698;23.124;2022-10-26T11:36:30;0.80;;;0.80;;
7929;SDS011;4010;42.698;23.124;2022-10-26T11:39:00;0.93;;;0.93;;
7929;SDS011;4010;42.698;23.124;2022-10-26T11:41:38;0.90;;;0.90;;
7929;SDS011;4010;42.698;23.124;2022-10-26T11:44:14;0.80;;;0.77;;
7929;SDS011;4010;42.698;23.124;2022-10-26T11:46:48;0.93;;;0.83;;
7929;SDS011;4010;42.698;23.124;2022-10-26T11:49:22;1.53;;;1.00;;
7929;SDS011;4010;42.698;23.124;2022-10-26T11:51:54;2.20;;;0.97;;
7929;SDS011;4010;42.698;23.124;2022-10-26T11:54:24;1.73;;;1.57;;
7929;SDS011;4010;42.698;23.124;2022-10-26T11:56:57;1.70;;;1.20;;
7929;SDS011;4010;42.698;23.124;2022-10-26T11:59:27;1.10;;;1.00;;
7929;SDS011;4010;42.698;23.124;2022-10-26T12:01:57;0.80;;;0.80;;
7929;SDS011;4010;42.698;23.124;2022-10-26T12:04:28;0.70;;;0.70;;
7929;SDS011;4010;42.698;23.124;2022-10-26T12:06:58;0.87;;;0.87;;
7929;SDS011;4010;42.698;23.124;2022-10-26T12:09:29;1.13;;;1.00;;
7929;SDS011;4010;42.698;23.124;2022-10-26T12:12:00;0.70;;;0.70;;
7929;SDS011;4010;42.698;23.124;2022-10-26T12:14:35;0.70;;;0.70;;
7929;SDS011;4010;42.698;23.124;2022-10-26T12:17:08;0.70;;;0.63;;
7929;SDS011;4010;42.698;23.124;2022-10-26T12:19:39;0.77;;;0.73;;
7929;SDS011;4010;42.698;23.124;2022-10-26T12:22:12;1.03;;;0.70;;
7929;SDS011;4010;42.698;23.124;2022-10-26T12:24:44;0.93;;;0.43;;
7929;SDS011;4010;42.698;23.124;2022-10-26T12:27:28;1.90;;;0.53;;
7929;SDS011;4010;42.698;23.124;2022-10-26T12:30:14;0.77;;;0.77;;
7929;SDS011;4010;42.698;23.124;2022-10-26T12:32:51;0.57;;;0.40;;
7929;SDS011;4010;42.698;23.124;2022-10-26T12:41:18;1.13;;;0.60;;
7929;SDS011;4010;42.698;23.124;2022-10-26T12:43:47;0.83;;;0.70;;
7929;SDS011;4010;42.698;23.124;2022-10-26T12:55:21;0.67;;;0.63;;
7929;SDS011;4010;42.698;23.124;2022-10-26T12:58:00;0.80;;;0.80;;
7929;SDS011;4010;42.698;23.124;2022-10-26T13:00:36;0.90;;;0.90;;
7929;SDS011;4010;42.698;23.124;2022-10-26T13:03:15;0.60;;;0.60;;
7929;SDS011;4010;42.698;23.124;2022-10-26T13:05:57;1.70;;;0.70;;
7929;SDS011;4010;42.698;23.124;2022-10-26T13:08:39;1.57;;;0.77;;
7929;SDS011;4010;42.698;23.124;2022-10-26T13:11:12;1.07;;;0.97;;
7929;SDS011;4010;42.698;23.124;2022-10-26T13:13:41;1.20;;;1.00;;
7929;SDS011;4010;42.698;23.124;2022-10-26T13:16:09;1.43;;;0.80;;
7929;SDS011;4010;42.698;23.124;2022-10-26T13:18:41;1.10;;;1.00;;
7929;SDS011;4010;42.698;23.124;2022-10-26T13:21:12;1.83;;;1.00;;
7929;SDS011;4010;42.698;23.124;2022-10-26T13:23:41;1.90;;;0.90;;
7929;SDS011;4010;42.698;23.124;2022-10-26T13:26:11;0.83;;;0.80;;
7929;SDS011;4010;42.698;23.124;2022-10-26T13:28:47;3.23;;;1.10;;
7929;SDS011;4010;42.698;23.124;2022-10-26T13:34:16;3.67;;;1.27;;
7929;SDS011;4010;42.698;23.124;2022-10-26T13:36:48;2.97;;;1.20;;
7929;SDS011;4010;42.698;23.124;2022-10-26T13:39:19;1.40;;;1.10;;
7929;SDS011;4010;42.698;23.124;2022-10-26T13:41:49;1.57;;;0.90;;
7929;SDS011;4010;42.698;23.124;2022-10-26T13:44:21;1.40;;;0.90;;
7929;SDS011;4010;42.698;23.124;2022-10-26T13:46:51;1.47;;;1.37;;
7929;SDS011;4010;42.698;23.124;2022-10-26T13:49:23;1.40;;;1.30;;
7929;SDS011;4010;42.698;23.124;2022-10-26T13:51:55;2.90;;;1.30;;
7929;SDS011;4010;42.698;23.124;2022-10-26T13:54:28;3.60;;;1.20;;
7929;SDS011;4010;42.698;23.124;2022-10-26T13:57:04;2.10;;;1.17;;
7929;SDS011;4010;42.698;23.124;2022-10-26T13:59:40;1.97;;;1.20;;
7929;SDS011;4010;42.698;23.124;2022-10-26T14:02:17;1.23;;;1.13;;
7929;SDS011;4010;42.698;23.124;2022-10-26T14:04:50;1.57;;;1.27;;
7929;SDS011;4010;42.698;23.124;2022-10-26T14:07:19;4.10;;;1.50;;
7929;SDS011;4010;42.698;23.124;2022-10-26T14:09:50;1.73;;;1.33;;
7929;SDS011;4010;42.698;23.124;2022-10-26T14:12:18;1.30;;;1.20;;
7929;SDS011;4010;42.698;23.124;2022-10-26T14:14:45;2.57;;;1.40;;
7929;SDS011;4010;42.698;23.124;2022-10-26T14:17:15;1.20;;;1.10;;
7929;SDS011;4010;42.698;23.124;2022-10-26T14:19:44;1.10;;;1.00;;
7929;SDS011;4010;42.698;23.124;2022-10-26T14:22:17;1.67;;;1.20;;
7929;SDS011;4010;42.698;23.124;2022-10-26T14:24:49;1.30;;;1.13;;
7929;SDS011;4010;42.698;23.124;2022-10-26T14:27:18;1.07;;;0.97;;
7929;SDS011;4010;42.698;23.124;2022-10-26T14:29:46;1.47;;;1.00;;
7929;SDS011;4010;42.698;23.124;2022-10-26T14:32:19;2.03;;;1.00;;
7929;SDS011;4010;42.698;23.124;2022-10-26T14:34:47;1.37;;;1.20;;
7929;SDS011;4010;42.698;23.124;2022-10-26T14:37:17;1.20;;;1.10;;
7929;SDS011;4010;42.698;23.124;2022-10-26T14:39:55;1.03;;;0.93;;
7929;SDS011;4010;42.698;23.124;2022-10-26T14:42:23;1.50;;;1.17;;
7929;SDS011;4010;42.698;23.124;2022-10-26T14:44:53;1.40;;;1.23;;
7929;SDS011;4010;42.698;23.124;2022-10-26T14:47:22;1.27;;;1.17;;
7929;SDS011;4010;42.698;23.124;2022-10-26T14:49:51;1.43;;;1.27;;
7929;SDS011;4010;42.698;23.124;2022-10-26T14:52:20;1.17;;;1.07;;
7929;SDS011;4010;42.698;23.124;2022-10-26T14:54:58;1.47;;;1.20;;
7929;SDS011;4010;42.698;23.124;2022-10-26T14:57:32;1.30;;;1.20;;
7929;SDS011;4010;42.698;23.124;2022-10-26T15:00:02;1.20;;;1.10;;
7929;SDS011;4010;42.698;23.124;2022-10-26T15:02:37;1.33;;;1.23;;
7929;SDS011;4010;42.698;23.124;2022-10-26T15:05:15;3.17;;;2.63;;
7929;SDS011;4010;42.698;23.124;2022-10-26T15:07:45;13.47;;;6.57;;
7929;SDS011;4010;42.698;23.124;2022-10-26T15:13:15;74.67;;;43.10;;
7929;SDS011;4010;42.698;23.124;2022-10-26T15:15:47;157.50;;;88.77;;
7929;SDS011;4010;42.698;23.124;2022-10-26T15:18:17;163.17;;;90.43;;
7929;SDS011;4010;42.698;23.124;2022-10-26T15:20:47;196.57;;;105.43;;
7929;SDS011;4010;42.698;23.124;2022-10-26T15:23:17;187.20;;;93.63;;
7929;SDS011;4010;42.698;23.124;2022-10-26T15:25:54;272.70;;;136.43;;
7929;SDS011;4010;42.698;23.124;2022-10-26T15:28:23;265.60;;;137.60;;
7929;SDS011;4010;42.698;23.124;2022-10-26T15:30:59;118.43;;;60.33;;
7929;SDS011;4010;42.698;23.124;2022-10-26T15:33:30;53.73;;;28.83;;
7929;SDS011;4010;42.698;23.124;2022-10-26T15:36:11;21.53;;;10.97;;
7929;SDS011;4010;42.698;23.124;2022-10-26T15:38:40;21.70;;;11.90;;
7929;SDS011;4010;42.698;23.124;2022-10-26T15:41:12;22.90;;;12.77;;
7929;SDS011;4010;42.698;23.124;2022-10-26T15:43:41;26.97;;;13.07;;
7929;SDS011;4010;42.698;23.124;2022-10-26T15:46:09;12.87;;;7.80;;
7929;SDS011;4010;42.698;23.124;2022-10-26T15:48:35;6.27;;;3.10;;
7929;SDS011;4010;42.698;23.124;2022-10-26T15:51:04;5.37;;;2.70;;